• Join FlightAware (Why Join?)
  • Login
  • US Flag 
01:33PM EST


 

Airport Tracker/Info


-or-


 

Live Flight TrackerFlight Track Log ✈ DAL6048 ✈ 18-Apr-2013 ✈ KMHT - KLGA

Flight Track Log - Related Links

Times and Time Zones

All times are in EDT time to prevent confusion due to time zone crossing. See the DAL6048 flight status page for this flight to view local times or setup timezone preferences in your user account.

Time Position Orientation Groundspeed Altitude Reporting Facility
EDT Latitude Longitude Course Direction KTS MPH feet Rate Location/Type
10:02AM 42.9167 -71.4167 200° South 163 188 800  Level KA90
10:03AM 42.8833 -71.4333 200° South 173 199 2,300 2,040 Climbing KA90
10:04AM 42.8989 -71.5078 286° West 245 282 4,200 2,400 Climbing Boston Center
10:05AM 42.9389 -71.5781 308° West 255 293 6,900 2,640 Climbing Boston Center
10:06AM 42.9731 -71.6653 298° West 255 293 9,500 1,920 Climbing Boston Center
10:07AM 42.9275 -71.7342 228° Southwest 219 252 10,800 1,680 Climbing Boston Center
10:08AM 42.8636 -71.8225 225° Southwest 258 297 13,000 1,860 Climbing Boston Center
10:09AM 42.8097 -71.8911 223° Southwest 296 341 14,600 1,380 Climbing Boston Center
10:10AM 42.7392 -71.9822 223° Southwest 316 364 15,800 660 Climbing Boston Center
10:11AM 42.6769 -72.0589 222° Southwest 334 384 16,000 60 Climbing Boston Center
10:12AM 42.5961 -72.1636 224° Southwest 357 411 16,000  Level Boston Center
10:13AM 42.5336 -72.2428 223° Southwest 357 411 16,000  Level Boston Center
10:14AM 42.4567 -72.3417 223° Southwest 352 405 16,000  Level Boston Center
10:15AM 42.3878 -72.4344 225° Southwest 352 405 16,000  Level Boston Center
10:16AM 42.3253 -72.5300 229° Southwest 352 405 16,000 -60 Level Boston Center
10:17AM 42.2669 -72.6197 229° Southwest 352 405 15,900 -720 Descending Boston Center
10:18AM 42.2019 -72.7203 229° Southwest 352 405 14,600 -960 Descending Boston Center
10:19AM 42.1331 -72.8292 230° Southwest 358 412 14,000 -300 Descending Boston Center
10:20AM 42.0764 -72.9156 229° Southwest 352 405 14,000  Level Boston Center
10:21AM 42.0072 -73.0183 228° Southwest 352 405 14,000  Level Boston Center
10:22AM 41.9419 -73.1239 230° Southwest 359 413 14,000  Level Boston Center
10:23AM 41.8767 -73.2208 228° Southwest 359 413 14,000  Level Boston Center
10:24AM 41.8156 -73.3175 230° Southwest 359 413 14,000  Level Boston Center
10:25AM 41.7375 -73.4333 228° Southwest 354 407 14,000  Level Boston Center
10:26AM 41.6719 -73.5322 228° Southwest 361 415 14,000 -480 Level Boston Center
10:27AM 41.5667 -73.6667 224° Southwest 328 377 12,800 -1,260 Descending New York TRACON
10:28AM 41.5167 -73.7667 236° Southwest 303 349 10,900 -1,740 Descending New York TRACON
10:29AM 41.4667 -73.8333 225° Southwest 283 326 9,400 -960 Descending New York TRACON
10:30AM 41.3833 -73.8333 180° South 279 321 9,000 -540 Descending New York TRACON
10:31AM 41.3167 -73.7833 151° Southeast 282 325 8,400 -1,080 Descending New York TRACON
10:32AM 41.2667 -73.7167 135° Southeast 266 306 6,900 -1,620 Descending New York TRACON
10:33AM 41.2000 -73.6833 159° South 249 287 5,300 -1,380 Descending New York TRACON
10:34AM 41.1333 -73.6667 169° South 218 251 4,100 -660 Descending New York TRACON
10:35AM 41.0833 -73.6667 180° South 188 216 4,000 -60 Descending New York TRACON
10:36AM 41.0500 -73.6667 180° South 161 185 4,000 -60 Level New York TRACON
10:37AM 41.0000 -73.6833 194° South 175 201 3,900 -480 Descending New York TRACON
10:38AM 40.9500 -73.7333 217° Southwest 169 194 3,000 -480 Descending New York TRACON
10:39AM 40.9167 -73.7667 217° Southwest 178 205 3,000  Level New York TRACON